sensor_id;sensor_type;location;lat;lon;timestamp;P1;durP1;ratioP1;P2;durP2;ratioP2
1344;SDS011;15375;48.540;9.268;2023-03-26T00:01:32;1.80;;;1.07;;
1344;SDS011;15375;48.540;9.268;2023-03-26T00:04:00;3.03;;;1.00;;
1344;SDS011;15375;48.540;9.268;2023-03-26T00:06:27;1.30;;;1.13;;
1344;SDS011;15375;48.540;9.268;2023-03-26T00:08:54;7.47;;;1.10;;
1344;SDS011;15375;48.540;9.268;2023-03-26T00:11:21;1.80;;;1.17;;
1344;SDS011;15375;48.540;9.268;2023-03-26T00:13:48;2.90;;;1.70;;
1344;SDS011;15375;48.540;9.268;2023-03-26T00:16:14;2.53;;;1.00;;
1344;SDS011;15375;48.540;9.268;2023-03-26T00:18:42;1.50;;;1.10;;
1344;SDS011;15375;48.540;9.268;2023-03-26T00:21:12;2.10;;;1.30;;
1344;SDS011;15375;48.540;9.268;2023-03-26T00:23:40;2.53;;;1.33;;
1344;SDS011;15375;48.540;9.268;2023-03-26T00:26:06;3.53;;;1.20;;
1344;SDS011;15375;48.540;9.268;2023-03-26T00:28:38;2.73;;;1.17;;
1344;SDS011;15375;48.540;9.268;2023-03-26T00:31:05;4.10;;;1.70;;
1344;SDS011;15375;48.540;9.268;2023-03-26T00:33:32;3.70;;;1.60;;
1344;SDS011;15375;48.540;9.268;2023-03-26T00:36:02;1.63;;;0.77;;
1344;SDS011;15375;48.540;9.268;2023-03-26T00:38:29;2.33;;;1.40;;
1344;SDS011;15375;48.540;9.268;2023-03-26T00:40:58;2.77;;;1.53;;
1344;SDS011;15375;48.540;9.268;2023-03-26T00:43:29;3.00;;;1.40;;
1344;SDS011;15375;48.540;9.268;2023-03-26T00:45:57;9.27;;;1.80;;
1344;SDS011;15375;48.540;9.268;2023-03-26T00:48:22;2.40;;;1.40;;
1344;SDS011;15375;48.540;9.268;2023-03-26T00:50:48;5.90;;;1.90;;
1344;SDS011;15375;48.540;9.268;2023-03-26T00:53:14;6.57;;;1.27;;
1344;SDS011;15375;48.540;9.268;2023-03-26T00:55:41;3.43;;;1.53;;
1344;SDS011;15375;48.540;9.268;2023-03-26T00:58:09;5.33;;;1.30;;
1344;SDS011;15375;48.540;9.268;2023-03-26T01:00:35;6.93;;;1.70;;
1344;SDS011;15375;48.540;9.268;2023-03-26T01:03:06;6.93;;;1.87;;
1344;SDS011;15375;48.540;9.268;2023-03-26T01:05:40;6.67;;;1.50;;
1344;SDS011;15375;48.540;9.268;2023-03-26T01:08:16;3.97;;;2.37;;
1344;SDS011;15375;48.540;9.268;2023-03-26T01:10:47;2.13;;;1.00;;
1344;SDS011;15375;48.540;9.268;2023-03-26T01:13:15;2.90;;;1.40;;
1344;SDS011;15375;48.540;9.268;2023-03-26T01:15:43;4.03;;;1.30;;
1344;SDS011;15375;48.540;9.268;2023-03-26T01:18:15;1.30;;;1.20;;
1344;SDS011;15375;48.540;9.268;2023-03-26T01:20:41;3.87;;;1.70;;
1344;SDS011;15375;48.540;9.268;2023-03-26T01:23:11;1.00;;;0.90;;
1344;SDS011;15375;48.540;9.268;2023-03-26T01:25:40;4.13;;;1.30;;
1344;SDS011;15375;48.540;9.268;2023-03-26T01:28:12;2.50;;;1.17;;
1344;SDS011;15375;48.540;9.268;2023-03-26T01:30:42;7.13;;;1.73;;
1344;SDS011;15375;48.540;9.268;2023-03-26T01:36:22;2.17;;;1.67;;
1344;SDS011;15375;48.540;9.268;2023-03-26T01:38:58;2.10;;;1.17;;
1344;SDS011;15375;48.540;9.268;2023-03-26T01:44:19;2.53;;;1.30;;
1344;SDS011;15375;48.540;9.268;2023-03-26T01:46:48;6.47;;;1.20;;
1344;SDS011;15375;48.540;9.268;2023-03-26T01:49:16;4.73;;;1.30;;
1344;SDS011;15375;48.540;9.268;2023-03-26T01:51:42;1.83;;;1.13;;
1344;SDS011;15375;48.540;9.268;2023-03-26T01:54:09;1.83;;;1.40;;
1344;SDS011;15375;48.540;9.268;2023-03-26T01:57:42;3.43;;;1.20;;
1344;SDS011;15375;48.540;9.268;2023-03-26T02:02:27;2.37;;;0.93;;
1344;SDS011;15375;48.540;9.268;2023-03-26T02:10:12;2.20;;;2.00;;
1344;SDS011;15375;48.540;9.268;2023-03-26T02:12:48;4.93;;;1.60;;
1344;SDS011;15375;48.540;9.268;2023-03-26T02:15:14;5.03;;;1.60;;
1344;SDS011;15375;48.540;9.268;2023-03-26T02:17:40;3.87;;;1.93;;
1344;SDS011;15375;48.540;9.268;2023-03-26T02:20:09;4.63;;;1.27;;
1344;SDS011;15375;48.540;9.268;2023-03-26T02:22:38;3.57;;;1.53;;
1344;SDS011;15375;48.540;9.268;2023-03-26T02:25:10;4.67;;;1.80;;
1344;SDS011;15375;48.540;9.268;2023-03-26T02:27:37;3.43;;;3.00;;
1344;SDS011;15375;48.540;9.268;2023-03-26T02:30:04;3.17;;;2.20;;
1344;SDS011;15375;48.540;9.268;2023-03-26T02:32:31;5.70;;;2.30;;
1344;SDS011;15375;48.540;9.268;2023-03-26T02:34:56;4.00;;;2.20;;
1344;SDS011;15375;48.540;9.268;2023-03-26T02:37:22;3.27;;;1.73;;
1344;SDS011;15375;48.540;9.268;2023-03-26T02:39:47;7.10;;;1.93;;
1344;SDS011;15375;48.540;9.268;2023-03-26T02:42:12;3.87;;;2.70;;
1344;SDS011;15375;48.540;9.268;2023-03-26T02:44:40;6.10;;;2.67;;
1344;SDS011;15375;48.540;9.268;2023-03-26T02:47:05;3.77;;;2.63;;
1344;SDS011;15375;48.540;9.268;2023-03-26T02:49:30;2.73;;;2.17;;
1344;SDS011;15375;48.540;9.268;2023-03-26T02:51:56;3.07;;;1.80;;
1344;SDS011;15375;48.540;9.268;2023-03-26T02:54:21;5.43;;;1.50;;
1344;SDS011;15375;48.540;9.268;2023-03-26T02:56:47;19.70;;;2.47;;
1344;SDS011;15375;48.540;9.268;2023-03-26T02:59:12;4.57;;;1.43;;
1344;SDS011;15375;48.540;9.268;2023-03-26T03:01:38;2.80;;;1.30;;
1344;SDS011;15375;48.540;9.268;2023-03-26T03:04:07;2.07;;;1.30;;
1344;SDS011;15375;48.540;9.268;2023-03-26T03:06:34;4.23;;;1.43;;
1344;SDS011;15375;48.540;9.268;2023-03-26T03:08:59;2.47;;;1.47;;
1344;SDS011;15375;48.540;9.268;2023-03-26T03:11:28;2.83;;;1.73;;
1344;SDS011;15375;48.540;9.268;2023-03-26T03:13:53;3.30;;;1.73;;
1344;SDS011;15375;48.540;9.268;2023-03-26T03:16:19;3.40;;;1.40;;
1344;SDS011;15375;48.540;9.268;2023-03-26T03:18:44;2.90;;;1.50;;
1344;SDS011;15375;48.540;9.268;2023-03-26T03:21:11;3.07;;;1.40;;
1344;SDS011;15375;48.540;9.268;2023-03-26T03:23:37;2.93;;;1.60;;
1344;SDS011;15375;48.540;9.268;2023-03-26T03:26:02;4.10;;;2.10;;
1344;SDS011;15375;48.540;9.268;2023-03-26T03:28:27;4.30;;;1.60;;
1344;SDS011;15375;48.540;9.268;2023-03-26T03:30:54;2.10;;;1.33;;
1344;SDS011;15375;48.540;9.268;2023-03-26T03:33:21;10.53;;;2.00;;
1344;SDS011;15375;48.540;9.268;2023-03-26T03:35:47;2.63;;;1.70;;
1344;SDS011;15375;48.540;9.268;2023-03-26T03:38:14;3.80;;;2.17;;
1344;SDS011;15375;48.540;9.268;2023-03-26T03:40:41;4.50;;;1.87;;
1344;SDS011;15375;48.540;9.268;2023-03-26T03:43:06;3.60;;;1.70;;
1344;SDS011;15375;48.540;9.268;2023-03-26T03:45:31;6.20;;;1.70;;
1344;SDS011;15375;48.540;9.268;2023-03-26T03:47:57;3.63;;;1.67;;
1344;SDS011;15375;48.540;9.268;2023-03-26T03:50:23;8.23;;;4.23;;
1344;SDS011;15375;48.540;9.268;2023-03-26T03:52:49;2.30;;;1.53;;
1344;SDS011;15375;48.540;9.268;2023-03-26T03:55:14;5.73;;;2.10;;
1344;SDS011;15375;48.540;9.268;2023-03-26T03:57:40;2.93;;;1.73;;
1344;SDS011;15375;48.540;9.268;2023-03-26T04:00:05;2.87;;;1.87;;
1344;SDS011;15375;48.540;9.268;2023-03-26T04:02:34;7.00;;;2.03;;
1344;SDS011;15375;48.540;9.268;2023-03-26T04:05:00;5.30;;;1.60;;
1344;SDS011;15375;48.540;9.268;2023-03-26T04:07:26;6.97;;;2.17;;
1344;SDS011;15375;48.540;9.268;2023-03-26T04:09:55;5.33;;;1.33;;
1344;SDS011;15375;48.540;9.268;2023-03-26T04:12:20;9.57;;;2.20;;
1344;SDS011;15375;48.540;9.268;2023-03-26T04:14:46;3.03;;;1.80;;
1344;SDS011;15375;48.540;9.268;2023-03-26T04:17:11;5.27;;;1.67;;
1344;SDS011;15375;48.540;9.268;2023-03-26T04:19:40;5.53;;;1.80;;
1344;SDS011;15375;48.540;9.268;2023-03-26T04:22:05;8.90;;;3.60;;
1344;SDS011;15375;48.540;9.268;2023-03-26T04:24:31;3.93;;;1.90;;
1344;SDS011;15375;48.540;9.268;2023-03-26T04:27:04;4.40;;;1.80;;
1344;SDS011;15375;48.540;9.268;2023-03-26T04:29:33;2.70;;;1.80;;
1344;SDS011;15375;48.540;9.268;2023-03-26T04:32:07;7.63;;;2.60;;
1344;SDS011;15375;48.540;9.268;2023-03-26T04:34:39;4.73;;;1.93;;
1344;SDS011;15375;48.540;9.268;2023-03-26T04:37:09;9.00;;;1.70;;
1344;SDS011;15375;48.540;9.268;2023-03-26T04:39:48;1.80;;;1.70;;
1344;SDS011;15375;48.540;9.268;2023-03-26T04:42:14;4.23;;;2.03;;
1344;SDS011;15375;48.540;9.268;2023-03-26T04:44:43;4.43;;;1.87;;
1344;SDS011;15375;48.540;9.268;2023-03-26T04:47:09;6.57;;;1.73;;
1344;SDS011;15375;48.540;9.268;2023-03-26T04:49:34;4.83;;;2.40;;
1344;SDS011;15375;48.540;9.268;2023-03-26T04:52:00;6.03;;;1.73;;
1344;SDS011;15375;48.540;9.268;2023-03-26T04:54:25;3.63;;;1.70;;
1344;SDS011;15375;48.540;9.268;2023-03-26T04:56:55;4.77;;;2.23;;
1344;SDS011;15375;48.540;9.268;2023-03-26T04:59:31;6.87;;;2.30;;
1344;SDS011;15375;48.540;9.268;2023-03-26T05:02:01;4.27;;;1.63;;
1344;SDS011;15375;48.540;9.268;2023-03-26T05:04:29;4.43;;;1.80;;
1344;SDS011;15375;48.540;9.268;2023-03-26T05:06:54;2.80;;;1.73;;
1344;SDS011;15375;48.540;9.268;2023-03-26T05:09:22;3.13;;;1.40;;
1344;SDS011;15375;48.540;9.268;2023-03-26T05:11:50;1.90;;;1.50;;
1344;SDS011;15375;48.540;9.268;2023-03-26T05:14:16;4.03;;;2.00;;
1344;SDS011;15375;48.540;9.268;2023-03-26T05:16:41;3.27;;;1.70;;
1344;SDS011;15375;48.540;9.268;2023-03-26T05:19:08;4.77;;;2.60;;
1344;SDS011;15375;48.540;9.268;2023-03-26T05:21:34;4.13;;;2.67;;
1344;SDS011;15375;48.540;9.268;2023-03-26T05:24:00;9.30;;;1.73;;
1344;SDS011;15375;48.540;9.268;2023-03-26T05:26:26;10.10;;;2.10;;
1344;SDS011;15375;48.540;9.268;2023-03-26T05:28:53;3.40;;;1.90;;
1344;SDS011;15375;48.540;9.268;2023-03-26T05:31:19;3.17;;;1.20;;
1344;SDS011;15375;48.540;9.268;2023-03-26T05:33:45;2.50;;;1.60;;
1344;SDS011;15375;48.540;9.268;2023-03-26T05:36:11;2.53;;;1.17;;
1344;SDS011;15375;48.540;9.268;2023-03-26T05:38:37;4.90;;;2.00;;
1344;SDS011;15375;48.540;9.268;2023-03-26T05:41:04;2.20;;;1.30;;
1344;SDS011;15375;48.540;9.268;2023-03-26T05:43:31;2.13;;;1.43;;
1344;SDS011;15375;48.540;9.268;2023-03-26T05:45:58;3.30;;;1.87;;
1344;SDS011;15375;48.540;9.268;2023-03-26T05:48:24;3.10;;;1.30;;
1344;SDS011;15375;48.540;9.268;2023-03-26T05:50:51;7.03;;;0.97;;
1344;SDS011;15375;48.540;9.268;2023-03-26T05:53:18;4.80;;;1.40;;
1344;SDS011;15375;48.540;9.268;2023-03-26T05:55:45;5.17;;;1.30;;
1344;SDS011;15375;48.540;9.268;2023-03-26T05:58:14;2.83;;;1.40;;
1344;SDS011;15375;48.540;9.268;2023-03-26T06:00:40;2.63;;;1.10;;
1344;SDS011;15375;48.540;9.268;2023-03-26T06:03:06;4.70;;;1.63;;
1344;SDS011;15375;48.540;9.268;2023-03-26T06:05:36;3.57;;;1.30;;
1344;SDS011;15375;48.540;9.268;2023-03-26T06:08:03;2.20;;;1.27;;
1344;SDS011;15375;48.540;9.268;2023-03-26T06:10:28;4.40;;;1.30;;
1344;SDS011;15375;48.540;9.268;2023-03-26T06:12:54;3.57;;;1.13;;
1344;SDS011;15375;48.540;9.268;2023-03-26T06:15:19;2.00;;;1.20;;
1344;SDS011;15375;48.540;9.268;2023-03-26T06:17:45;2.60;;;0.83;;
1344;SDS011;15375;48.540;9.268;2023-03-26T06:20:11;0.87;;;0.77;;
1344;SDS011;15375;48.540;9.268;2023-03-26T06:22:37;2.70;;;1.13;;
1344;SDS011;15375;48.540;9.268;2023-03-26T06:25:02;5.53;;;1.60;;
1344;SDS011;15375;48.540;9.268;2023-03-26T06:27:28;1.67;;;1.40;;
1344;SDS011;15375;48.540;9.268;2023-03-26T06:29:53;3.33;;;1.30;;
1344;SDS011;15375;48.540;9.268;2023-03-26T06:32:19;3.70;;;1.53;;
1344;SDS011;15375;48.540;9.268;2023-03-26T06:34:44;4.10;;;1.37;;
1344;SDS011;15375;48.540;9.268;2023-03-26T06:37:10;5.73;;;1.30;;
1344;SDS011;15375;48.540;9.268;2023-03-26T06:39:35;3.27;;;1.30;;
1344;SDS011;15375;48.540;9.268;2023-03-26T06:42:01;2.03;;;1.30;;
1344;SDS011;15375;48.540;9.268;2023-03-26T06:44:26;3.40;;;1.80;;
1344;SDS011;15375;48.540;9.268;2023-03-26T06:46:51;4.13;;;2.37;;
1344;SDS011;15375;48.540;9.268;2023-03-26T06:49:17;3.50;;;1.43;;
1344;SDS011;15375;48.540;9.268;2023-03-26T06:51:42;5.03;;;1.73;;
1344;SDS011;15375;48.540;9.268;2023-03-26T06:54:08;4.57;;;1.90;;
1344;SDS011;15375;48.540;9.268;2023-03-26T06:56:33;3.93;;;1.43;;
1344;SDS011;15375;48.540;9.268;2023-03-26T06:58:58;7.10;;;1.77;;
1344;SDS011;15375;48.540;9.268;2023-03-26T07:01:24;3.23;;;1.57;;
1344;SDS011;15375;48.540;9.268;2023-03-26T07:03:49;7.60;;;2.07;;
1344;SDS011;15375;48.540;9.268;2023-03-26T07:06:15;5.10;;;1.80;;
1344;SDS011;15375;48.540;9.268;2023-03-26T07:08:40;5.80;;;2.00;;
1344;SDS011;15375;48.540;9.268;2023-03-26T07:11:06;1.57;;;1.27;;
1344;SDS011;15375;48.540;9.268;2023-03-26T07:13:31;3.27;;;1.67;;
1344;SDS011;15375;48.540;9.268;2023-03-26T07:15:56;8.10;;;2.57;;
1344;SDS011;15375;48.540;9.268;2023-03-26T07:18:22;4.20;;;2.10;;
1344;SDS011;15375;48.540;9.268;2023-03-26T07:20:47;4.43;;;1.27;;
1344;SDS011;15375;48.540;9.268;2023-03-26T07:23:16;8.73;;;2.23;;
1344;SDS011;15375;48.540;9.268;2023-03-26T07:25:45;4.53;;;0.83;;
1344;SDS011;15375;48.540;9.268;2023-03-26T07:28:15;4.23;;;3.40;;
1344;SDS011;15375;48.540;9.268;2023-03-26T07:30:54;4.47;;;1.60;;
1344;SDS011;15375;48.540;9.268;2023-03-26T07:34:06;6.43;;;2.13;;
1344;SDS011;15375;48.540;9.268;2023-03-26T07:39:05;2.47;;;1.00;;
1344;SDS011;15375;48.540;9.268;2023-03-26T07:47:10;3.13;;;1.70;;
1344;SDS011;15375;48.540;9.268;2023-03-26T07:49:59;3.80;;;1.40;;
1344;SDS011;15375;48.540;9.268;2023-03-26T07:52:25;6.10;;;2.07;;
1344;SDS011;15375;48.540;9.268;2023-03-26T07:54:51;4.83;;;2.33;;
1344;SDS011;15375;48.540;9.268;2023-03-26T08:08:59;5.10;;;1.60;;
1344;SDS011;15375;48.540;9.268;2023-03-26T08:11:44;3.90;;;2.10;;
1344;SDS011;15375;48.540;9.268;2023-03-26T08:14:26;4.80;;;1.70;;
1344;SDS011;15375;48.540;9.268;2023-03-26T08:17:12;4.40;;;1.70;;
1344;SDS011;15375;48.540;9.268;2023-03-26T08:19:52;2.70;;;1.30;;
1344;SDS011;15375;48.540;9.268;2023-03-26T08:22:28;6.00;;;2.67;;
1344;SDS011;15375;48.540;9.268;2023-03-26T08:25:16;4.97;;;1.80;;
1344;SDS011;15375;48.540;9.268;2023-03-26T08:27:50;7.10;;;1.70;;
1344;SDS011;15375;48.540;9.268;2023-03-26T08:30:23;2.03;;;1.33;;
1344;SDS011;15375;48.540;9.268;2023-03-26T08:32:55;3.83;;;1.60;;
1344;SDS011;15375;48.540;9.268;2023-03-26T08:35:26;7.47;;;1.53;;
1344;SDS011;15375;48.540;9.268;2023-03-26T08:37:52;4.50;;;1.80;;
1344;SDS011;15375;48.540;9.268;2023-03-26T08:40:23;6.90;;;2.47;;
1344;SDS011;15375;48.540;9.268;2023-03-26T08:46:25;3.33;;;1.97;;
1344;SDS011;15375;48.540;9.268;2023-03-26T08:55:05;3.70;;;1.90;;
1344;SDS011;15375;48.540;9.268;2023-03-26T09:03:54;4.77;;;1.90;;
1344;SDS011;15375;48.540;9.268;2023-03-26T09:18:11;4.37;;;2.40;;
1344;SDS011;15375;48.540;9.268;2023-03-26T09:35:49;4.50;;;2.13;;
1344;SDS011;15375;48.540;9.268;2023-03-26T09:41:14;3.70;;;2.10;;
1344;SDS011;15375;48.540;9.268;2023-03-26T10:10:58;3.30;;;1.40;;
1344;SDS011;15375;48.540;9.268;2023-03-26T10:13:29;2.10;;;0.80;;
1344;SDS011;15375;48.540;9.268;2023-03-26T10:16:17;2.40;;;0.90;;
1344;SDS011;15375;48.540;9.268;2023-03-26T10:35:58;0.53;;;0.50;;
1344;SDS011;15375;48.540;9.268;2023-03-26T10:41:44;0.40;;;0.40;;
1344;SDS011;15375;48.540;9.268;2023-03-26T10:52:55;0.50;;;0.50;;
1344;SDS011;15375;48.540;9.268;2023-03-26T10:55:36;2.80;;;0.67;;
1344;SDS011;15375;48.540;9.268;2023-03-26T11:00:28;2.30;;;0.70;;
1344;SDS011;15375;48.540;9.268;2023-03-26T11:17:08;1.23;;;0.63;;
1344;SDS011;15375;48.540;9.268;2023-03-26T11:22:26;2.50;;;0.70;;
1344;SDS011;15375;48.540;9.268;2023-03-26T11:27:46;4.43;;;0.87;;
1344;SDS011;15375;48.540;9.268;2023-03-26T11:30:23;1.00;;;0.77;;
1344;SDS011;15375;48.540;9.268;2023-03-26T11:33:15;0.60;;;0.47;;
1344;SDS011;15375;48.540;9.268;2023-03-26T11:35:46;1.30;;;0.40;;
1344;SDS011;15375;48.540;9.268;2023-03-26T11:38:31;0.60;;;0.40;;
1344;SDS011;15375;48.540;9.268;2023-03-26T11:41:09;0.67;;;0.60;;
1344;SDS011;15375;48.540;9.268;2023-03-26T11:43:37;0.40;;;0.40;;
1344;SDS011;15375;48.540;9.268;2023-03-26T11:46:03;0.60;;;0.43;;
1344;SDS011;15375;48.540;9.268;2023-03-26T11:48:45;0.60;;;0.60;;
1344;SDS011;15375;48.540;9.268;2023-03-26T11:51:17;1.63;;;0.60;;
1344;SDS011;15375;48.540;9.268;2023-03-26T11:53:50;2.10;;;0.60;;
1344;SDS011;15375;48.540;9.268;2023-03-26T12:01:54;1.30;;;0.63;;
1344;SDS011;15375;48.540;9.268;2023-03-26T12:07:15;1.07;;;0.80;;
1344;SDS011;15375;48.540;9.268;2023-03-26T12:12:18;1.00;;;0.73;;
1344;SDS011;15375;48.540;9.268;2023-03-26T12:14:44;2.20;;;0.87;;
1344;SDS011;15375;48.540;9.268;2023-03-26T12:17:12;1.43;;;0.60;;
1344;SDS011;15375;48.540;9.268;2023-03-26T12:19:48;1.90;;;1.10;;
1344;SDS011;15375;48.540;9.268;2023-03-26T12:22:33;2.80;;;0.77;;
1344;SDS011;15375;48.540;9.268;2023-03-26T12:27:41;1.10;;;0.83;;
1344;SDS011;15375;48.540;9.268;2023-03-26T12:30:10;1.50;;;0.80;;
1344;SDS011;15375;48.540;9.268;2023-03-26T12:32:44;1.50;;;0.60;;
1344;SDS011;15375;48.540;9.268;2023-03-26T12:35:15;1.80;;;1.03;;
1344;SDS011;15375;48.540;9.268;2023-03-26T12:37:49;4.30;;;0.70;;
1344;SDS011;15375;48.540;9.268;2023-03-26T12:40:31;0.93;;;0.90;;
1344;SDS011;15375;48.540;9.268;2023-03-26T12:43:01;0.90;;;0.67;;
1344;SDS011;15375;48.540;9.268;2023-03-26T12:45:38;2.50;;;0.77;;
1344;SDS011;15375;48.540;9.268;2023-03-26T12:48:06;3.30;;;0.80;;
1344;SDS011;15375;48.540;9.268;2023-03-26T12:53:33;1.67;;;0.80;;
1344;SDS011;15375;48.540;9.268;2023-03-26T12:59:00;1.07;;;0.90;;
1344;SDS011;15375;48.540;9.268;2023-03-26T13:06:56;2.93;;;1.27;;
1344;SDS011;15375;48.540;9.268;2023-03-26T13:09:31;1.60;;;0.90;;
1344;SDS011;15375;48.540;9.268;2023-03-26T13:14:51;2.10;;;1.00;;
1344;SDS011;15375;48.540;9.268;2023-03-26T13:23:23;0.97;;;0.90;;
1344;SDS011;15375;48.540;9.268;2023-03-26T13:25:57;1.80;;;1.10;;
1344;SDS011;15375;48.540;9.268;2023-03-26T13:28:30;1.90;;;0.70;;
1344;SDS011;15375;48.540;9.268;2023-03-26T13:39:04;2.07;;;0.77;;
1344;SDS011;15375;48.540;9.268;2023-03-26T13:47:43;1.90;;;0.80;;
1344;SDS011;15375;48.540;9.268;2023-03-26T13:49:56;5.20;;;1.30;;
1344;SDS011;15375;48.540;9.268;2023-03-26T13:52:41;1.87;;;0.83;;
1344;SDS011;15375;48.540;9.268;2023-03-26T14:01:02;4.53;;;1.57;;
1344;SDS011;15375;48.540;9.268;2023-03-26T14:06:34;2.60;;;1.00;;
1344;SDS011;15375;48.540;9.268;2023-03-26T14:09:11;2.73;;;0.87;;
1344;SDS011;15375;48.540;9.268;2023-03-26T14:12:02;2.23;;;1.00;;
1344;SDS011;15375;48.540;9.268;2023-03-26T14:17:03;2.40;;;0.90;;
1344;SDS011;15375;48.540;9.268;2023-03-26T14:31:35;5.43;;;0.87;;
1344;SDS011;15375;48.540;9.268;2023-03-26T14:34:21;1.70;;;0.90;;
1344;SDS011;15375;48.540;9.268;2023-03-26T14:42:41;2.20;;;0.70;;
1344;SDS011;15375;48.540;9.268;2023-03-26T14:48:13;0.67;;;0.60;;
1344;SDS011;15375;48.540;9.268;2023-03-26T14:54:10;2.17;;;0.80;;
1344;SDS011;15375;48.540;9.268;2023-03-26T14:56:40;1.07;;;0.80;;
1344;SDS011;15375;48.540;9.268;2023-03-26T14:59:25;1.70;;;0.80;;
1344;SDS011;15375;48.540;9.268;2023-03-26T15:07:28;1.37;;;0.90;;
1344;SDS011;15375;48.540;9.268;2023-03-26T15:19:15;0.90;;;0.60;;
1344;SDS011;15375;48.540;9.268;2023-03-26T15:36:33;1.03;;;0.73;;
1344;SDS011;15375;48.540;9.268;2023-03-26T15:39:38;2.23;;;0.73;;
1344;SDS011;15375;48.540;9.268;2023-03-26T15:42:16;3.10;;;0.70;;
1344;SDS011;15375;48.540;9.268;2023-03-26T15:55:42;1.90;;;0.70;;
1344;SDS011;15375;48.540;9.268;2023-03-26T16:01:25;1.17;;;0.40;;
1344;SDS011;15375;48.540;9.268;2023-03-26T16:06:47;1.43;;;0.67;;
1344;SDS011;15375;48.540;9.268;2023-03-26T16:14:41;2.77;;;0.80;;
1344;SDS011;15375;48.540;9.268;2023-03-26T16:17:13;1.27;;;0.60;;
1344;SDS011;15375;48.540;9.268;2023-03-26T16:19:46;2.77;;;0.90;;
1344;SDS011;15375;48.540;9.268;2023-03-26T16:25:17;2.20;;;0.80;;
1344;SDS011;15375;48.540;9.268;2023-03-26T16:27:50;0.90;;;0.63;;
1344;SDS011;15375;48.540;9.268;2023-03-26T16:30:41;1.90;;;0.60;;
1344;SDS011;15375;48.540;9.268;2023-03-26T16:33:18;1.83;;;0.77;;
1344;SDS011;15375;48.540;9.268;2023-03-26T16:39:16;0.83;;;0.83;;
1344;SDS011;15375;48.540;9.268;2023-03-26T16:41:27;0.67;;;0.50;;
1344;SDS011;15375;48.540;9.268;2023-03-26T16:47:18;0.60;;;0.50;;
1344;SDS011;15375;48.540;9.268;2023-03-26T16:49:53;0.77;;;0.60;;
1344;SDS011;15375;48.540;9.268;2023-03-26T16:52:43;0.53;;;0.53;;
1344;SDS011;15375;48.540;9.268;2023-03-26T16:55:22;1.07;;;0.60;;
1344;SDS011;15375;48.540;9.268;2023-03-26T16:58:25;1.23;;;0.87;;
1344;SDS011;15375;48.540;9.268;2023-03-26T17:01:07;0.50;;;0.50;;
1344;SDS011;15375;48.540;9.268;2023-03-26T17:03:50;0.80;;;0.60;;
1344;SDS011;15375;48.540;9.268;2023-03-26T17:06:25;0.60;;;0.30;;
1344;SDS011;15375;48.540;9.268;2023-03-26T17:22:10;0.90;;;0.60;;
1344;SDS011;15375;48.540;9.268;2023-03-26T17:24:48;3.60;;;2.03;;
1344;SDS011;15375;48.540;9.268;2023-03-26T17:29:59;0.73;;;0.70;;
1344;SDS011;15375;48.540;9.268;2023-03-26T17:35:43;1.23;;;0.90;;
1344;SDS011;15375;48.540;9.268;2023-03-26T17:38:57;0.70;;;0.50;;
1344;SDS011;15375;48.540;9.268;2023-03-26T17:41:03;0.67;;;0.67;;
1344;SDS011;15375;48.540;9.268;2023-03-26T17:46:19;1.03;;;0.93;;
1344;SDS011;15375;48.540;9.268;2023-03-26T17:48:57;1.53;;;0.63;;
1344;SDS011;15375;48.540;9.268;2023-03-26T17:51:39;1.33;;;0.60;;
1344;SDS011;15375;48.540;9.268;2023-03-26T17:54:07;0.67;;;0.67;;
1344;SDS011;15375;48.540;9.268;2023-03-26T17:56:42;1.30;;;0.50;;
1344;SDS011;15375;48.540;9.268;2023-03-26T17:59:09;0.70;;;0.60;;
1344;SDS011;15375;48.540;9.268;2023-03-26T18:01:42;0.80;;;0.60;;
1344;SDS011;15375;48.540;9.268;2023-03-26T18:04:11;0.63;;;0.57;;
1344;SDS011;15375;48.540;9.268;2023-03-26T18:18:07;1.20;;;1.10;;
1344;SDS011;15375;48.540;9.268;2023-03-26T18:20:52;1.57;;;1.10;;
1344;SDS011;15375;48.540;9.268;2023-03-26T18:28:44;5.70;;;0.90;;
1344;SDS011;15375;48.540;9.268;2023-03-26T18:33:47;1.00;;;1.00;;
1344;SDS011;15375;48.540;9.268;2023-03-26T18:36:14;1.90;;;1.57;;
1344;SDS011;15375;48.540;9.268;2023-03-26T18:38:42;1.40;;;1.03;;
1344;SDS011;15375;48.540;9.268;2023-03-26T18:41:14;1.03;;;0.83;;
1344;SDS011;15375;48.540;9.268;2023-03-26T18:43:47;0.90;;;0.90;;
1344;SDS011;15375;48.540;9.268;2023-03-26T18:46:12;1.27;;;1.00;;
1344;SDS011;15375;48.540;9.268;2023-03-26T18:48:38;1.17;;;1.07;;
1344;SDS011;15375;48.540;9.268;2023-03-26T18:51:04;1.23;;;1.13;;
1344;SDS011;15375;48.540;9.268;2023-03-26T18:53:38;1.90;;;1.00;;
1344;SDS011;15375;48.540;9.268;2023-03-26T18:59:04;3.30;;;1.13;;
1344;SDS011;15375;48.540;9.268;2023-03-26T19:01:33;1.20;;;1.03;;
1344;SDS011;15375;48.540;9.268;2023-03-26T19:04:01;1.10;;;0.90;;
1344;SDS011;15375;48.540;9.268;2023-03-26T19:06:30;2.37;;;1.00;;
1344;SDS011;15375;48.540;9.268;2023-03-26T19:09:02;0.80;;;0.80;;
1344;SDS011;15375;48.540;9.268;2023-03-26T19:11:35;1.90;;;1.23;;
1344;SDS011;15375;48.540;9.268;2023-03-26T19:14:07;1.30;;;1.20;;
1344;SDS011;15375;48.540;9.268;2023-03-26T19:16:39;1.03;;;0.83;;
1344;SDS011;15375;48.540;9.268;2023-03-26T19:19:08;3.60;;;1.63;;
1344;SDS011;15375;48.540;9.268;2023-03-26T19:21:42;1.10;;;1.00;;
1344;SDS011;15375;48.540;9.268;2023-03-26T19:24:08;2.30;;;0.83;;
1344;SDS011;15375;48.540;9.268;2023-03-26T19:26:36;1.27;;;1.00;;
1344;SDS011;15375;48.540;9.268;2023-03-26T19:29:02;1.40;;;0.67;;
1344;SDS011;15375;48.540;9.268;2023-03-26T19:31:35;0.70;;;0.70;;
1344;SDS011;15375;48.540;9.268;2023-03-26T19:34:12;1.30;;;1.00;;
1344;SDS011;15375;48.540;9.268;2023-03-26T19:39:46;0.53;;;0.50;;
1344;SDS011;15375;48.540;9.268;2023-03-26T19:42:26;1.37;;;1.03;;
1344;SDS011;15375;48.540;9.268;2023-03-26T19:44:56;0.70;;;0.60;;
1344;SDS011;15375;48.540;9.268;2023-03-26T19:47:24;1.37;;;0.90;;
1344;SDS011;15375;48.540;9.268;2023-03-26T19:49:55;1.23;;;0.70;;
1344;SDS011;15375;48.540;9.268;2023-03-26T19:57:34;0.70;;;0.70;;
1344;SDS011;15375;48.540;9.268;2023-03-26T20:00:00;0.90;;;0.90;;
1344;SDS011;15375;48.540;9.268;2023-03-26T20:02:29;1.20;;;0.80;;
1344;SDS011;15375;48.540;9.268;2023-03-26T20:04:55;1.10;;;1.00;;
1344;SDS011;15375;48.540;9.268;2023-03-26T20:07:21;1.37;;;1.00;;
1344;SDS011;15375;48.540;9.268;2023-03-26T20:09:50;1.07;;;0.70;;
1344;SDS011;15375;48.540;9.268;2023-03-26T20:12:17;0.60;;;0.60;;
1344;SDS011;15375;48.540;9.268;2023-03-26T20:14:43;1.10;;;0.70;;
1344;SDS011;15375;48.540;9.268;2023-03-26T20:17:16;0.70;;;0.70;;
1344;SDS011;15375;48.540;9.268;2023-03-26T20:19:45;1.10;;;0.80;;
1344;SDS011;15375;48.540;9.268;2023-03-26T20:22:14;0.70;;;0.50;;
1344;SDS011;15375;48.540;9.268;2023-03-26T20:24:42;0.70;;;0.63;;
1344;SDS011;15375;48.540;9.268;2023-03-26T20:27:10;3.50;;;0.80;;
1344;SDS011;15375;48.540;9.268;2023-03-26T20:29:38;0.53;;;0.53;;
1344;SDS011;15375;48.540;9.268;2023-03-26T20:32:05;1.10;;;0.63;;
1344;SDS011;15375;48.540;9.268;2023-03-26T20:34:40;0.80;;;0.70;;
1344;SDS011;15375;48.540;9.268;2023-03-26T20:37:05;3.33;;;0.60;;
1344;SDS011;15375;48.540;9.268;2023-03-26T20:39:31;0.90;;;0.80;;
1344;SDS011;15375;48.540;9.268;2023-03-26T20:41:56;2.90;;;0.90;;
1344;SDS011;15375;48.540;9.268;2023-03-26T20:44:21;2.70;;;1.07;;
1344;SDS011;15375;48.540;9.268;2023-03-26T20:46:47;0.90;;;0.73;;
1344;SDS011;15375;48.540;9.268;2023-03-26T20:49:13;1.63;;;0.73;;
1344;SDS011;15375;48.540;9.268;2023-03-26T20:51:39;1.13;;;0.60;;
1344;SDS011;15375;48.540;9.268;2023-03-26T20:54:07;0.60;;;0.60;;
1344;SDS011;15375;48.540;9.268;2023-03-26T20:56:38;0.70;;;0.57;;
1344;SDS011;15375;48.540;9.268;2023-03-26T20:59:05;3.90;;;1.00;;
1344;SDS011;15375;48.540;9.268;2023-03-26T21:01:31;0.57;;;0.57;;
1344;SDS011;15375;48.540;9.268;2023-03-26T21:03:57;1.00;;;0.80;;
1344;SDS011;15375;48.540;9.268;2023-03-26T21:06:23;2.50;;;0.70;;
1344;SDS011;15375;48.540;9.268;2023-03-26T21:08:48;2.40;;;1.00;;
1344;SDS011;15375;48.540;9.268;2023-03-26T21:11:19;0.80;;;0.80;;
1344;SDS011;15375;48.540;9.268;2023-03-26T21:13:49;0.63;;;0.60;;